Time;durP1;ratioP1;P1;durP2;ratioP2;P2;SDS_P1;SDS_P2;PMS_P1;PMS_P2;Temp;Humidity;BMP_temperature;BMP_pressure;BME280_temperature;BME280_humidity;BME280_pressure;Samples;Min_cycle;Max_cycle;Signal;HPM_P1;HPM_P2
2023/03/01 00:01:18;;;;;;;12.68;8.18;;;2.00;99.90;;;;;;5004745;28;20357;-71
2023/03/01 00:03:44;;;;;;;12.77;8.82;;;2.00;99.90;;;;;;4999276;28;20030;-71
2023/03/01 00:06:10;;;;;;;15.85;8.68;;;2.00;99.90;;;;;;5015579;28;20128;-70
2023/03/01 00:08:36;;;;;;;12.00;8.50;;;2.00;99.90;;;;;;5007065;28;20060;-70
2023/03/01 00:11:16;;;;;;;12.82;8.63;;;1.90;99.90;;;;;;5012041;28;20105;-71
2023/03/01 00:13:43;;;;;;;14.60;8.43;;;1.90;99.90;;;;;;5000084;28;20556;-71
2023/03/01 00:16:21;;;;;;;17.00;9.35;;;1.90;99.90;;;;;;4991847;28;20046;-71
2023/03/01 00:18:47;;;;;;;10.82;8.20;;;1.90;99.90;;;;;;5000299;28;20514;-70
2023/03/01 00:21:13;;;;;;;12.27;8.73;;;1.90;99.90;;;;;;5003981;28;20034;-70
2023/03/01 00:23:39;;;;;;;12.05;7.63;;;1.90;99.90;;;;;;5014010;28;20091;-70
2023/03/01 00:26:07;;;;;;;13.70;9.00;;;1.90;99.90;;;;;;5008262;28;20019;-70
2023/03/01 00:28:33;;;;;;;14.65;8.30;;;1.90;99.90;;;;;;5014898;28;20030;-71
2023/03/01 00:31:16;;;;;;;11.55;8.38;;;1.90;99.90;;;;;;4989583;28;20029;-70
2023/03/01 00:33:42;;;;;;;15.32;10.07;;;1.90;99.90;;;;;;4992667;28;20030;-71
2023/03/01 00:36:09;;;;;;;12.80;8.98;;;1.90;99.90;;;;;;5006677;28;20136;-70
2023/03/01 00:38:36;;;;;;;13.75;9.50;;;1.90;99.90;;;;;;5000202;28;20101;-70
2023/03/01 00:41:11;;;;;;;12.13;8.88;;;1.90;99.90;;;;;;5000169;28;20022;-71
2023/03/01 00:43:37;;;;;;;17.77;9.75;;;1.90;99.90;;;;;;4998458;28;20101;-70
2023/03/01 00:46:05;;;;;;;12.68;9.18;;;1.90;99.90;;;;;;5009767;28;20015;-70
2023/03/01 00:48:31;;;;;;;17.70;10.63;;;1.80;99.90;;;;;;4989027;28;20469;-69
2023/03/01 00:50:57;;;;;;;11.82;8.40;;;1.90;99.90;;;;;;4998635;28;20026;-70
2023/03/01 00:53:22;;;;;;;14.07;9.45;;;1.90;99.90;;;;;;4997495;28;20026;-69
2023/03/01 00:55:48;;;;;;;10.90;7.80;;;1.80;99.90;;;;;;4986467;28;20027;-69
2023/03/01 00:58:14;;;;;;;13.20;8.52;;;1.80;99.90;;;;;;4988793;28;20030;-69
2023/03/01 01:00:39;;;;;;;12.10;8.40;;;1.80;99.90;;;;;;4987476;28;20036;-70
2023/03/01 01:03:05;;;;;;;13.88;8.60;;;1.80;99.90;;;;;;4991471;28;20118;-70
2023/03/01 01:05:33;;;;;;;13.60;9.40;;;1.90;99.90;;;;;;4986398;28;20045;-70
2023/03/01 01:07:59;;;;;;;13.93;8.93;;;1.80;99.90;;;;;;4985047;28;20050;-69
2023/03/01 01:10:25;;;;;;;13.43;9.25;;;1.80;99.90;;;;;;4989389;28;20474;-70
2023/03/01 01:12:50;;;;;;;14.40;8.48;;;1.80;99.90;;;;;;4987002;28;20061;-70
2023/03/01 01:15:16;;;;;;;15.38;8.95;;;1.80;99.90;;;;;;4991165;28;20035;-70
2023/03/01 01:17:42;;;;;;;11.05;8.73;;;1.80;99.90;;;;;;4985615;28;20050;-70
2023/03/01 01:20:08;;;;;;;14.35;9.25;;;1.70;99.90;;;;;;4990317;28;20386;-70
2023/03/01 01:22:34;;;;;;;14.88;9.05;;;1.70;99.90;;;;;;4989315;28;20030;-70
2023/03/01 01:25:00;;;;;;;15.50;9.30;;;1.70;99.90;;;;;;4992886;28;20029;-70
2023/03/01 01:27:25;;;;;;;16.23;10.43;;;1.70;99.90;;;;;;4985962;28;20101;-70
2023/03/01 01:29:53;;;;;;;15.18;9.77;;;1.70;99.90;;;;;;4973156;28;20030;-71
2023/03/01 01:32:18;;;;;;;16.38;9.68;;;1.70;99.90;;;;;;4986128;28;20120;-70
2023/03/01 01:34:44;;;;;;;13.90;9.50;;;1.70;99.90;;;;;;4991373;28;20109;-70
2023/03/01 01:37:10;;;;;;;13.20;8.90;;;1.70;99.90;;;;;;4990416;28;20039;-71
2023/03/01 01:39:35;;;;;;;14.70;9.38;;;1.70;99.90;;;;;;4991898;28;20026;-70
2023/03/01 01:42:01;;;;;;;18.88;9.80;;;1.60;99.90;;;;;;4987992;28;20037;-70
2023/03/01 01:44:28;;;;;;;19.45;9.00;;;1.60;99.90;;;;;;4990120;28;20106;-70
2023/03/01 01:47:07;;;;;;;15.50;9.27;;;1.60;99.90;;;;;;4992828;28;20057;-69
2023/03/01 01:49:55;;;;;;;13.25;9.13;;;1.60;99.90;;;;;;4996703;28;20030;-69
2023/03/01 01:52:24;;;;;;;13.75;9.10;;;1.60;99.90;;;;;;4991821;28;20030;-69
2023/03/01 01:55:14;;;;;;;14.82;9.48;;;1.60;99.90;;;;;;4987908;28;20114;-70
2023/03/01 01:57:48;;;;;;;13.52;9.02;;;1.60;99.90;;;;;;4987886;28;20061;-70
2023/03/01 02:00:18;;;;;;;15.70;9.52;;;1.60;99.90;;;;;;4983001;28;20058;-69
2023/03/01 02:02:46;;;;;;;14.20;10.00;;;1.60;99.90;;;;;;4993322;28;20044;-69
2023/03/01 02:05:31;;;;;;;15.43;9.50;;;1.50;99.90;;;;;;4986074;28;20037;-70
2023/03/01 02:07:58;;;;;;;13.98;8.75;;;1.50;99.90;;;;;;4988562;28;20039;-69
2023/03/01 02:10:25;;;;;;;12.75;9.27;;;1.50;99.90;;;;;;4983940;28;20015;-70
2023/03/01 02:12:51;;;;;;;14.63;9.32;;;1.50;99.90;;;;;;4985921;28;20167;-69
2023/03/01 02:15:17;;;;;;;16.27;9.70;;;1.50;99.90;;;;;;4982342;28;20058;-70
2023/03/01 02:17:43;;;;;;;13.57;9.15;;;1.50;99.90;;;;;;4995786;28;20562;-69
2023/03/01 02:20:30;;;;;;;14.90;9.73;;;1.50;99.90;;;;;;4987290;28;20052;-69
2023/03/01 02:22:56;;;;;;;13.98;9.02;;;1.50;99.90;;;;;;4991005;28;20042;-69
2023/03/01 02:25:22;;;;;;;18.20;9.05;;;1.50;99.90;;;;;;4988814;28;20052;-69
2023/03/01 02:27:57;;;;;;;15.80;9.93;;;1.50;99.90;;;;;;4988091;28;20027;-69
2023/03/01 02:30:24;;;;;;;13.50;8.23;;;1.50;99.90;;;;;;4998695;28;20022;-70
2023/03/01 02:32:52;;;;;;;14.82;8.43;;;1.50;99.90;;;;;;4983740;28;20031;-68
2023/03/01 02:35:19;;;;;;;13.43;8.10;;;1.40;99.90;;;;;;4986608;28;20026;-68
2023/03/01 02:37:45;;;;;;;17.42;8.80;;;1.40;99.90;;;;;;4988950;28;20105;-68
2023/03/01 02:40:16;;;;;;;15.38;9.45;;;1.30;99.90;;;;;;4984901;28;20105;-69
2023/03/01 02:42:55;;;;;;;15.60;9.23;;;1.30;99.90;;;;;;4988819;28;20026;-68
2023/03/01 02:45:21;;;;;;;14.98;8.90;;;1.30;99.90;;;;;;4984639;28;20022;-71
2023/03/01 02:47:47;;;;;;;14.52;9.75;;;1.40;99.90;;;;;;4984192;28;20548;-71
2023/03/01 02:50:30;;;;;;;14.77;9.80;;;1.30;99.90;;;;;;4985394;28;20062;-68
2023/03/01 02:53:08;;;;;;;13.55;9.35;;;1.30;99.90;;;;;;4986722;28;20087;-68
2023/03/01 02:55:33;;;;;;;13.38;8.73;;;1.20;99.90;;;;;;4983898;28;20038;-68
2023/03/01 02:58:02;;;;;;;15.32;9.02;;;1.20;99.90;;;;;;4986075;28;20034;-69
2023/03/01 03:00:34;;;;;;;12.82;8.73;;;1.20;99.90;;;;;;4999073;28;20475;-69
2023/03/01 03:03:00;;;;;;;14.70;8.95;;;1.20;99.90;;;;;;4985640;28;20041;-70
2023/03/01 03:05:29;;;;;;;13.80;9.05;;;1.20;99.90;;;;;;4987519;28;20482;-71
2023/03/01 03:07:56;;;;;;;14.13;9.18;;;1.20;99.90;;;;;;4985186;28;20018;-70
2023/03/01 03:10:24;;;;;;;13.52;8.55;;;1.20;99.90;;;;;;4986566;28;20105;-70
2023/03/01 03:13:05;;;;;;;14.18;8.48;;;1.20;99.90;;;;;;4985555;28;20016;-70
2023/03/01 03:15:31;;;;;;;14.55;9.23;;;1.20;99.90;;;;;;4986932;28;20034;-70
2023/03/01 03:17:58;;;;;;;18.05;9.93;;;1.20;99.90;;;;;;4987124;28;20026;-70
2023/03/01 03:20:26;;;;;;;13.18;10.32;;;1.20;99.90;;;;;;4982583;28;20505;-70
2023/03/01 03:22:54;;;;;;;15.55;9.77;;;1.10;99.90;;;;;;4987483;28;20061;-70
2023/03/01 03:25:21;;;;;;;18.00;9.82;;;1.10;99.90;;;;;;4995736;28;20037;-70
2023/03/01 03:27:48;;;;;;;13.05;8.88;;;1.10;99.90;;;;;;4982556;28;20037;-70
2023/03/01 03:30:19;;;;;;;14.82;9.13;;;1.10;99.90;;;;;;4981847;28;20046;-70
2023/03/01 03:32:53;;;;;;;17.63;9.18;;;1.10;99.90;;;;;;4984352;28;20475;-69
2023/03/01 03:35:45;;;;;;;13.95;8.82;;;1.10;99.90;;;;;;4985141;28;20076;-69
2023/03/01 03:38:16;;;;;;;14.05;8.85;;;1.10;99.90;;;;;;4975587;28;20039;-69
2023/03/01 03:40:45;;;;;;;12.73;8.73;;;1.10;99.90;;;;;;4976363;28;20058;-69
2023/03/01 03:43:17;;;;;;;15.50;9.68;;;1.10;99.90;;;;;;4983777;28;20104;-69
2023/03/01 03:45:47;;;;;;;12.00;8.15;;;1.10;99.90;;;;;;4982618;28;20502;-69
2023/03/01 03:48:12;;;;;;;15.60;9.38;;;1.10;99.90;;;;;;4981628;28;20038;-69
2023/03/01 03:50:39;;;;;;;14.90;9.57;;;1.10;99.90;;;;;;4977606;28;20035;-69
2023/03/01 03:53:10;;;;;;;15.77;9.20;;;1.10;99.90;;;;;;4985163;28;20058;-69
2023/03/01 03:55:38;;;;;;;16.25;9.65;;;1.00;99.90;;;;;;4981256;28;20089;-69
2023/03/01 03:58:06;;;;;;;17.05;10.50;;;1.00;99.90;;;;;;4980614;28;20035;-69
2023/03/01 04:00:34;;;;;;;14.77;9.43;;;1.00;99.90;;;;;;4978158;28;20059;-68
2023/03/01 04:03:00;;;;;;;15.63;11.00;;;1.00;99.90;;;;;;4978863;28;20030;-69
2023/03/01 04:05:26;;;;;;;15.95;10.57;;;0.90;99.90;;;;;;4984467;28;20367;-69
2023/03/01 04:08:06;;;;;;;16.23;9.93;;;1.00;99.90;;;;;;4984455;28;20041;-69
2023/03/01 04:10:38;;;;;;;14.90;9.55;;;1.00;99.90;;;;;;4982585;28;20531;-68
2023/03/01 04:13:06;;;;;;;15.02;10.20;;;0.90;99.90;;;;;;4987158;28;20034;-69
2023/03/01 04:15:33;;;;;;;18.63;10.07;;;1.00;99.90;;;;;;4984471;28;20109;-69
2023/03/01 04:17:59;;;;;;;16.77;10.40;;;0.90;99.90;;;;;;4982774;28;20467;-69
2023/03/01 04:20:28;;;;;;;17.45;10.27;;;0.90;99.90;;;;;;4976664;28;20038;-68
2023/03/01 04:23:10;;;;;;;17.17;9.90;;;0.90;99.90;;;;;;4985839;28;20061;-69
2023/03/01 04:25:40;;;;;;;22.42;9.95;;;0.90;99.90;;;;;;4991910;28;20030;-70
2023/03/01 04:28:06;;;;;;;17.20;9.65;;;0.90;99.90;;;;;;4984186;28;20080;-69
2023/03/01 04:30:35;;;;;;;18.63;10.57;;;0.90;99.90;;;;;;4986978;28;20034;-69
2023/03/01 04:33:03;;;;;;;16.48;9.93;;;0.90;99.90;;;;;;4981998;28;20031;-69
2023/03/01 04:35:30;;;;;;;16.77;10.00;;;0.90;99.90;;;;;;4986935;28;20027;-68
2023/03/01 04:37:55;;;;;;;17.50;10.00;;;0.80;99.90;;;;;;4982451;28;20521;-68
2023/03/01 04:40:21;;;;;;;16.98;9.38;;;0.80;99.90;;;;;;4987352;28;20027;-69
2023/03/01 04:42:47;;;;;;;17.42;9.05;;;0.80;99.90;;;;;;4986214;28;20030;-69
2023/03/01 04:45:12;;;;;;;18.30;10.23;;;0.80;99.90;;;;;;4980564;28;20027;-69
2023/03/01 04:47:44;;;;;;;16.23;9.82;;;0.70;99.90;;;;;;4986429;28;20039;-69
2023/03/01 04:50:11;;;;;;;19.17;10.80;;;0.70;99.90;;;;;;4987389;28;20060;-70
2023/03/01 04:52:37;;;;;;;13.85;9.35;;;0.80;99.90;;;;;;4985720;28;20063;-69
2023/03/01 04:55:03;;;;;;;15.23;10.63;;;0.80;99.90;;;;;;4989860;28;20117;-69
2023/03/01 04:57:29;;;;;;;13.65;9.45;;;0.80;99.90;;;;;;4985733;28;20042;-69
2023/03/01 04:59:55;;;;;;;14.55;9.55;;;0.80;99.90;;;;;;4991696;28;20019;-70
2023/03/01 05:02:21;;;;;;;16.75;10.15;;;0.80;99.90;;;;;;4988871;28;20037;-69
2023/03/01 05:04:46;;;;;;;18.80;10.27;;;0.80;99.90;;;;;;4983787;28;20053;-69
2023/03/01 05:07:12;;;;;;;15.82;11.05;;;0.80;99.90;;;;;;4989039;28;20038;-68
2023/03/01 05:09:38;;;;;;;15.68;10.93;;;0.80;99.90;;;;;;4983406;28;20031;-68
2023/03/01 05:12:04;;;;;;;18.73;10.57;;;0.80;99.90;;;;;;4981315;28;20026;-69
2023/03/01 05:14:30;;;;;;;16.20;10.52;;;0.80;99.90;;;;;;4986528;28;20030;-70
2023/03/01 05:17:03;;;;;;;15.40;10.57;;;0.70;99.90;;;;;;4989098;28;20433;-69
2023/03/01 05:19:30;;;;;;;18.67;10.23;;;0.70;99.90;;;;;;4981033;28;20437;-69
2023/03/01 05:22:05;;;;;;;16.58;10.13;;;0.60;99.90;;;;;;4980613;28;20080;-69
2023/03/01 05:24:33;;;;;;;18.23;10.85;;;0.60;99.90;;;;;;4980279;28;20026;-69
2023/03/01 05:27:00;;;;;;;17.65;10.20;;;0.60;99.90;;;;;;5017470;28;20524;-69
2023/03/01 05:29:27;;;;;;;18.17;10.13;;;0.60;99.90;;;;;;4986413;28;20027;-68
2023/03/01 05:31:58;;;;;;;17.80;10.32;;;0.60;99.90;;;;;;4983215;28;20509;-69
2023/03/01 05:34:26;;;;;;;18.85;10.43;;;0.60;99.90;;;;;;4980668;28;20030;-69
2023/03/01 05:36:52;;;;;;;15.80;10.10;;;0.50;99.90;;;;;;4987747;28;20039;-69
2023/03/01 05:39:23;;;;;;;16.08;10.27;;;0.50;99.90;;;;;;4985558;28;20451;-69
2023/03/01 05:41:56;;;;;;;16.58;10.77;;;0.50;99.90;;;;;;4987752;28;20034;-69
2023/03/01 05:44:22;;;;;;;17.73;10.30;;;0.50;99.90;;;;;;4987853;28;20019;-69
2023/03/01 05:46:49;;;;;;;16.77;10.02;;;0.50;99.90;;;;;;4988325;28;20051;-69
2023/03/01 05:49:15;;;;;;;19.25;10.50;;;0.50;99.90;;;;;;4981526;28;20031;-69
2023/03/01 05:51:42;;;;;;;18.40;10.48;;;0.50;99.90;;;;;;4988898;28;20039;-68
2023/03/01 05:54:10;;;;;;;21.15;11.93;;;0.50;99.90;;;;;;4985930;28;20130;-69
2023/03/01 05:56:36;;;;;;;16.25;10.82;;;0.50;99.90;;;;;;4986207;28;20470;-68
2023/03/01 05:59:04;;;;;;;20.35;10.98;;;0.50;99.90;;;;;;4983722;28;20053;-69
2023/03/01 06:01:31;;;;;;;14.40;10.13;;;0.40;99.90;;;;;;4986932;28;20080;-70
2023/03/01 06:03:57;;;;;;;16.85;10.50;;;0.40;99.90;;;;;;4984068;28;20034;-69
2023/03/01 06:06:23;;;;;;;17.35;10.57;;;0.40;99.90;;;;;;4983960;28;20541;-69
2023/03/01 06:08:50;;;;;;;16.40;10.15;;;0.40;99.90;;;;;;4981859;28;20452;-71
2023/03/01 06:11:15;;;;;;;15.38;10.27;;;0.40;99.90;;;;;;4988951;28;20106;-69
2023/03/01 06:13:43;;;;;;;18.00;10.60;;;0.40;99.90;;;;;;4981182;28;20106;-69
2023/03/01 06:16:09;;;;;;;18.77;10.38;;;0.40;99.90;;;;;;4988286;28;20465;-68
2023/03/01 06:18:35;;;;;;;20.52;10.60;;;0.30;99.90;;;;;;4982248;28;20019;-67
2023/03/01 06:21:01;;;;;;;15.20;9.93;;;0.30;99.90;;;;;;4983184;28;20639;-67
2023/03/01 06:23:27;;;;;;;17.10;10.13;;;0.30;99.90;;;;;;4985365;28;20082;-68
2023/03/01 06:25:52;;;;;;;16.33;10.57;;;0.30;99.90;;;;;;4983799;28;20025;-67
2023/03/01 06:28:18;;;;;;;15.73;10.13;;;0.20;99.90;;;;;;4990422;28;20101;-67
2023/03/01 06:30:44;;;;;;;15.82;9.73;;;0.20;99.90;;;;;;4979841;28;20546;-67
2023/03/01 06:33:10;;;;;;;18.90;10.90;;;0.20;99.90;;;;;;4985155;28;20425;-67
2023/03/01 06:35:35;;;;;;;18.05;10.35;;;0.20;99.90;;;;;;4987449;28;20121;-67
2023/03/01 06:38:03;;;;;;;15.23;10.15;;;0.10;99.90;;;;;;4980378;28;20038;-67
2023/03/01 06:40:29;;;;;;;20.30;11.18;;;0.10;99.90;;;;;;4984356;28;20039;-67
2023/03/01 06:42:55;;;;;;;18.83;11.98;;;0.10;99.90;;;;;;4982845;28;20033;-67
2023/03/01 06:45:21;;;;;;;18.50;11.00;;;0.10;99.90;;;;;;4984302;28;20379;-67
2023/03/01 06:47:47;;;;;;;17.20;11.07;;;0.10;99.90;;;;;;4989729;28;20463;-67
2023/03/01 06:50:14;;;;;;;17.35;11.00;;;0.10;99.90;;;;;;4984196;28;20030;-67
2023/03/01 06:52:40;;;;;;;21.42;11.52;;;0.10;99.90;;;;;;4981729;28;20035;-68
2023/03/01 06:55:06;;;;;;;24.95;11.60;;;0.10;99.90;;;;;;4985835;28;20042;-67
2023/03/01 06:57:32;;;;;;;21.23;11.77;;;0.10;99.90;;;;;;4977896;28;20095;-67
2023/03/01 06:59:57;;;;;;;22.52;12.07;;;0.10;99.90;;;;;;4987375;28;20034;-67
2023/03/01 07:02:23;;;;;;;17.83;10.20;;;0.10;99.90;;;;;;4987972;28;20144;-67
2023/03/01 07:04:50;;;;;;;16.85;11.45;;;0.20;99.90;;;;;;4981856;28;20030;-67
2023/03/01 07:07:17;;;;;;;20.60;12.35;;;0.20;99.90;;;;;;4982739;28;20022;-68
2023/03/01 07:09:44;;;;;;;18.17;11.40;;;0.20;99.90;;;;;;4985026;28;20025;-68
2023/03/01 07:12:10;;;;;;;23.50;12.02;;;0.20;99.90;;;;;;4982145;28;20427;-67
2023/03/01 07:14:36;;;;;;;18.67;10.10;;;0.20;99.90;;;;;;4983408;28;20058;-67
2023/03/01 07:17:01;;;;;;;16.48;10.63;;;0.20;99.90;;;;;;4983116;28;20034;-67
2023/03/01 07:19:27;;;;;;;17.38;11.57;;;0.20;99.90;;;;;;4988867;28;20081;-67
2023/03/01 07:21:53;;;;;;;23.05;11.13;;;0.20;99.90;;;;;;4986634;28;20031;-68
2023/03/01 07:24:19;;;;;;;21.73;10.82;;;0.20;99.90;;;;;;4979457;28;20025;-67
2023/03/01 07:26:51;;;;;;;22.23;11.43;;;0.20;99.90;;;;;;4981267;28;20027;-66
2023/03/01 07:29:18;;;;;;;19.50;11.77;;;0.20;99.90;;;;;;4985834;28;20033;-66
2023/03/01 07:31:44;;;;;;;19.33;11.60;;;0.20;99.90;;;;;;4982770;28;20125;-67
2023/03/01 07:34:10;;;;;;;18.73;12.02;;;0.30;99.90;;;;;;4986546;28;20149;-66
2023/03/01 07:36:36;;;;;;;25.20;14.02;;;0.40;99.90;;;;;;4980533;28;20398;-67
2023/03/01 07:39:03;;;;;;;24.35;13.45;;;0.40;99.90;;;;;;4985467;28;20030;-66
2023/03/01 07:41:29;;;;;;;25.15;12.98;;;0.40;99.90;;;;;;4980597;28;20046;-66
2023/03/01 07:43:55;;;;;;;24.95;15.57;;;0.40;99.90;;;;;;4985632;28;20027;-66
2023/03/01 07:46:21;;;;;;;28.67;15.25;;;0.40;99.90;;;;;;4985686;28;20030;-68
2023/03/01 07:48:47;;;;;;;24.48;14.57;;;0.50;99.90;;;;;;4981991;28;20023;-68
2023/03/01 07:51:13;;;;;;;24.23;14.32;;;0.50;99.90;;;;;;4980112;28;20042;-67
2023/03/01 07:53:39;;;;;;;24.58;14.43;;;0.50;99.90;;;;;;4982194;28;20109;-67
2023/03/01 07:56:10;;;;;;;25.70;13.82;;;0.60;99.90;;;;;;4981489;28;20109;-67
2023/03/01 07:58:37;;;;;;;22.08;13.80;;;0.60;99.90;;;;;;4983628;28;20600;-68
2023/03/01 08:01:05;;;;;;;20.15;11.98;;;0.70;99.90;;;;;;4987374;28;20034;-70
2023/03/01 08:03:31;;;;;;;23.67;12.30;;;0.80;99.90;;;;;;4988134;28;20386;-68
2023/03/01 08:06:00;;;;;;;26.95;13.68;;;0.90;99.90;;;;;;4990167;28;20038;-68
2023/03/01 08:08:26;;;;;;;25.27;12.48;;;0.90;99.90;;;;;;4981153;28;20064;-68
2023/03/01 08:10:52;;;;;;;24.38;13.18;;;1.00;99.90;;;;;;4988447;28;20030;-68
2023/03/01 08:13:22;;;;;;;20.42;12.02;;;1.10;99.90;;;;;;4988453;28;20069;-68
2023/03/01 08:15:49;;;;;;;21.45;11.63;;;1.40;99.90;;;;;;4985924;28;20037;-69
2023/03/01 08:18:18;;;;;;;20.27;12.45;;;1.50;99.90;;;;;;4982143;28;20105;-69
2023/03/01 08:20:44;;;;;;;22.25;12.52;;;1.70;99.90;;;;;;4985900;28;20107;-69
2023/03/01 08:23:10;;;;;;;23.08;12.15;;;1.90;99.90;;;;;;4988246;28;20035;-69
2023/03/01 08:25:36;;;;;;;18.70;12.75;;;2.00;99.90;;;;;;4983976;28;20129;-70
2023/03/01 08:28:01;;;;;;;19.05;13.48;;;2.10;99.90;;;;;;4985842;28;20030;-69
2023/03/01 08:30:27;;;;;;;25.38;12.65;;;2.20;99.90;;;;;;4983140;28;20520;-70
2023/03/01 08:32:53;;;;;;;21.33;12.68;;;2.30;99.90;;;;;;4986567;28;20037;-70
2023/03/01 08:35:20;;;;;;;19.15;11.77;;;2.40;99.90;;;;;;4988228;28;20101;-70
2023/03/01 08:37:46;;;;;;;18.63;11.88;;;2.50;99.90;;;;;;4985703;28;20046;-69
2023/03/01 08:40:13;;;;;;;20.27;11.27;;;2.80;99.90;;;;;;4985291;28;20026;-70
2023/03/01 08:42:40;;;;;;;18.48;11.52;;;3.10;99.90;;;;;;4985188;28;20049;-70
2023/03/01 08:45:07;;;;;;;18.40;12.13;;;3.10;99.90;;;;;;4983538;28;20057;-70
2023/03/01 08:47:33;;;;;;;19.48;12.40;;;3.30;99.90;;;;;;4987747;28;20048;-70
2023/03/01 08:49:59;;;;;;;18.80;12.65;;;3.50;99.90;;;;;;4992571;28;20035;-68
2023/03/01 08:52:26;;;;;;;17.17;10.60;;;3.40;99.90;;;;;;4985420;28;20395;-69
2023/03/01 08:54:52;;;;;;;21.30;11.23;;;3.50;99.90;;;;;;4990378;28;20046;-69
2023/03/01 08:57:18;;;;;;;17.85;10.88;;;3.50;99.90;;;;;;4993183;28;20069;-72
2023/03/01 08:59:43;;;;;;;17.75;11.00;;;3.40;99.90;;;;;;5000190;28;20531;-72
2023/03/01 09:02:14;;;;;;;15.68;10.57;;;3.60;99.90;;;;;;4984006;28;20038;-71
2023/03/01 09:04:40;;;;;;;14.70;9.70;;;3.80;99.90;;;;;;4986678;28;20014;-71
2023/03/01 09:07:08;;;;;;;19.38;11.05;;;4.10;99.90;;;;;;4985774;28;20030;-72
2023/03/01 09:09:34;;;;;;;19.77;11.50;;;4.20;99.90;;;;;;4991680;28;20429;-72
2023/03/01 09:12:00;;;;;;;19.23;10.90;;;4.10;99.90;;;;;;4988939;28;20034;-72
2023/03/01 09:14:25;;;;;;;15.20;9.77;;;4.30;99.90;;;;;;4986002;28;20051;-71
2023/03/01 09:16:51;;;;;;;16.42;10.48;;;4.30;99.90;;;;;;4982768;28;20477;-71
2023/03/01 09:19:16;;;;;;;16.90;10.55;;;4.40;99.90;;;;;;4983486;28;20030;-71
2023/03/01 09:21:52;;;;;;;21.10;10.65;;;4.40;99.90;;;;;;4992850;28;20049;-71
2023/03/01 09:24:21;;;;;;;15.32;10.18;;;4.30;99.90;;;;;;4984975;28;20105;-71
2023/03/01 09:26:48;;;;;;;16.20;10.73;;;4.30;99.90;;;;;;4985941;28;20054;-71
2023/03/01 09:29:14;;;;;;;15.55;10.32;;;4.30;99.90;;;;;;4983175;28;20035;-71
2023/03/01 09:31:41;;;;;;;17.02;9.52;;;4.40;99.90;;;;;;4986574;28;20506;-73
2023/03/01 09:34:07;;;;;;;17.15;10.90;;;4.40;99.90;;;;;;4984395;28;20031;-71
2023/03/01 09:36:33;;;;;;;21.83;11.00;;;4.60;99.90;;;;;;4985721;28;20555;-73
2023/03/01 09:38:59;;;;;;;19.38;10.90;;;5.00;99.90;;;;;;4985987;28;20125;-73
2023/03/01 09:42:04;;;;;;;18.50;11.23;;;5.20;99.90;;;;;;4986044;28;20023;-73
2023/03/01 09:44:51;;;;;;;17.58;11.10;;;5.20;99.90;;;;;;4983969;28;20069;-73
2023/03/01 09:47:23;;;;;;;19.92;12.07;;;5.20;99.90;;;;;;4987737;28;20029;-72
2023/03/01 09:50:12;;;;;;;;;;;5.30;99.90;;;;;;4985979;28;20076;-70
2023/03/01 09:53:08;;;;;;;17.10;10.52;;;5.20;99.90;;;;;;4982061;28;19918;-73
2023/03/01 09:55:56;;;;;;;19.92;12.25;;;5.30;99.90;;;;;;4992649;28;20026;-72
2023/03/01 09:58:52;;;;;;;19.33;11.60;;;5.30;99.90;;;;;;4982870;28;20034;-72
2023/03/01 10:01:32;;;;;;;19.35;12.05;;;5.20;99.90;;;;;;4982496;28;20053;-72
2023/03/01 10:04:06;;;;;;;16.52;11.18;;;5.30;99.90;;;;;;4984143;28;20520;-72
2023/03/01 10:06:32;;;;;;;18.20;10.43;;;5.30;99.90;;;;;;4986245;28;20026;-72
2023/03/01 10:09:17;;;;;;;19.52;10.63;;;5.30;99.90;;;;;;4983275;28;20132;-72
2023/03/01 10:11:48;;;;;;;20.23;11.60;;;5.40;99.90;;;;;;4980719;28;20036;-72
2023/03/01 10:14:34;;;;;;;18.85;11.35;;;5.50;99.90;;;;;;4986903;28;20033;-73
2023/03/01 10:17:12;;;;;;;17.73;10.93;;;5.30;99.90;;;;;;4979901;28;20027;-72
2023/03/01 10:19:45;;;;;;;17.63;12.13;;;5.30;99.90;;;;;;4989863;28;20027;-72
2023/03/01 10:22:18;;;;;;;18.98;12.50;;;5.40;99.90;;;;;;4985634;28;20058;-72
2023/03/01 10:24:46;;;;;;;21.88;11.73;;;5.60;99.90;;;;;;4989462;28;20469;-72
2023/03/01 10:27:35;;;;;;;18.45;12.32;;;5.80;99.90;;;;;;4981296;28;20034;-72
2023/03/01 10:30:16;;;;;;;24.55;13.57;;;5.90;99.90;;;;;;4978943;28;20045;-73
2023/03/01 10:32:44;;;;;;;22.05;13.05;;;6.00;99.90;;;;;;5010135;28;20137;-72
2023/03/01 10:35:22;;;;;;;17.52;11.40;;;6.10;99.90;;;;;;4989865;28;20028;-72
2023/03/01 10:38:18;;;;;;;21.73;12.00;;;6.20;99.90;;;;;;4994699;28;20176;-72
2023/03/01 10:40:58;;;;;;;20.00;12.65;;;6.60;99.90;;;;;;5010761;28;20488;-73
2023/03/01 10:43:40;;;;;;;18.40;12.85;;;6.60;99.90;;;;;;5004430;28;20038;-72
2023/03/01 10:46:27;;;;;;;22.10;10.90;;;6.60;99.90;;;;;;5015278;28;20107;-72
2023/03/01 10:49:15;;;;;;;18.08;10.90;;;6.40;99.90;;;;;;4992308;28;20643;-72
2023/03/01 10:51:43;;;;;;;18.27;11.27;;;6.60;99.90;;;;;;5007093;28;20091;-72
2023/03/01 10:54:29;;;;;;;17.85;11.70;;;6.80;99.90;;;;;;4988659;28;20534;-73
2023/03/01 10:56:57;;;;;;;17.02;10.80;;;6.90;99.90;;;;;;4998400;28;20092;-73
2023/03/01 10:59:26;;;;;;;19.10;10.90;;;6.80;99.90;;;;;;4994002;28;20029;-72
2023/03/01 11:02:16;;;;;;;20.05;11.43;;;7.00;99.90;;;;;;5003392;28;20054;-72
2023/03/01 11:05:16;;;;;;;14.93;10.10;;;7.00;99.90;;;;;;4999780;28;20030;-72
2023/03/01 11:07:59;;;;;;;15.82;10.48;;;6.90;99.90;;;;;;4992663;28;20419;-72
2023/03/01 11:10:36;;;;;;;24.83;12.02;;;7.00;99.90;;;;;;4995396;28;20023;-72
2023/03/01 11:13:19;;;;;;;19.38;11.57;;;7.10;99.90;;;;;;4986002;28;20031;-73
2023/03/01 11:16:10;;;;;;;19.17;10.57;;;7.20;99.90;;;;;;4994181;28;20026;-73
2023/03/01 11:18:35;;;;;;;18.20;11.45;;;6.90;99.90;;;;;;5009145;28;20083;-73
2023/03/01 11:21:03;;;;;;;19.83;11.80;;;6.90;99.90;;;;;;5004179;28;20502;-73
2023/03/01 11:23:30;;;;;;;22.40;11.45;;;7.10;99.90;;;;;;5011378;28;20391;-73
2023/03/01 11:25:59;;;;;;;16.55;10.02;;;7.00;99.90;;;;;;5011316;28;20421;-73
2023/03/01 11:28:27;;;;;;;16.20;10.65;;;6.90;99.90;;;;;;5002818;28;20037;-72
2023/03/01 11:30:55;;;;;;;19.63;12.77;;;7.00;99.90;;;;;;4997043;28;20030;-73
2023/03/01 11:33:45;;;;;;;22.23;12.50;;;7.20;99.90;;;;;;5009083;28;20085;-73
2023/03/01 11:36:29;;;;;;;17.52;10.82;;;7.20;99.90;;;;;;5024595;28;20038;-73
2023/03/01 11:38:56;;;;;;;17.77;11.35;;;7.40;99.90;;;;;;5004111;28;20431;-73
2023/03/01 11:41:26;;;;;;;18.08;11.27;;;7.40;99.90;;;;;;4995132;28;20097;-73
2023/03/01 11:44:21;;;;;;;16.15;11.88;;;7.50;99.90;;;;;;5011424;28;20377;-74
2023/03/01 11:46:57;;;;;;;15.75;11.45;;;7.60;99.90;;;;;;5013639;28;20027;-73
2023/03/01 11:49:53;;;;;;;16.08;11.02;;;7.60;99.90;;;;;;4999578;28;20061;-73
2023/03/01 11:52:41;;;;;;;16.95;11.18;;;7.60;99.90;;;;;;5014461;28;20077;-73
2023/03/01 11:55:20;;;;;;;15.35;10.27;;;7.50;99.90;;;;;;5005802;28;20026;-73
2023/03/01 11:58:07;;;;;;;15.45;10.30;;;7.60;99.90;;;;;;5002858;28;20038;-74
2023/03/01 12:00:44;;;;;;;17.10;11.65;;;7.80;99.90;;;;;;5032064;28;20086;-73
2023/03/01 12:03:33;;;;;;;26.65;10.10;;;7.80;99.90;;;;;;5013350;28;20429;-73
2023/03/01 12:06:23;;;;;;;14.57;9.88;;;7.90;99.90;;;;;;5009844;28;20142;-73
2023/03/01 12:09:14;;;;;;;17.23;10.35;;;7.70;99.90;;;;;;5010017;28;20063;-73
2023/03/01 12:12:04;;;;;;;12.88;9.45;;;7.80;99.90;;;;;;4999598;28;20475;-73
2023/03/01 12:14:49;;;;;;;13.55;9.98;;;8.00;99.90;;;;;;4999948;28;20055;-73
2023/03/01 12:17:37;;;;;;;13.88;9.77;;;8.20;99.90;;;;;;4995048;28;20034;-73
2023/03/01 12:20:03;;;;;;;16.92;10.13;;;8.20;99.90;;;;;;5019583;27;20034;-73
2023/03/01 12:22:38;;;;;;;14.63;9.80;;;8.30;99.90;;;;;;5014021;28;20109;-74
2023/03/01 12:25:13;;;;;;;12.55;9.32;;;8.10;99.90;;;;;;5009599;28;20022;-74
2023/03/01 12:28:06;;;;;;;15.80;9.60;;;8.10;99.90;;;;;;4999871;28;20049;-73
2023/03/01 12:31:08;;;;;;;15.30;10.07;;;8.00;99.90;;;;;;5024324;28;20543;-74
2023/03/01 12:34:03;;;;;;;13.25;9.85;;;8.00;99.90;;;;;;5010702;28;20033;-74
2023/03/01 12:36:49;;;;;;;16.15;11.23;;;8.00;99.90;;;;;;5022935;28;20411;-74
2023/03/01 12:39:32;;;;;;;16.65;9.57;;;8.00;99.90;;;;;;4995356;28;20023;-74
2023/03/01 12:42:41;;;;;;;16.83;11.00;;;8.10;99.90;;;;;;4997613;28;20019;-74
2023/03/01 12:45:25;;;;;;;15.95;9.82;;;7.90;99.90;;;;;;5024798;28;20063;-74
2023/03/01 12:47:52;;;;;;;16.90;9.73;;;8.00;99.90;;;;;;5002013;28;20035;-74
2023/03/01 12:50:23;;;;;;;14.55;9.38;;;8.20;99.90;;;;;;4997879;28;20020;-74
2023/03/01 12:52:55;;;;;;;18.83;9.13;;;8.10;99.90;;;;;;5001430;28;20031;-73
2023/03/01 12:55:27;;;;;;;;;;;8.20;99.90;;;;;;5002609;28;20024;-70
2023/03/01 12:58:31;;;;;;;15.45;10.45;;;8.10;99.90;;;;;;5014667;28;20021;-73
2023/03/01 13:01:16;;;;;;;16.10;10.27;;;7.80;99.90;;;;;;5005595;28;20034;-73